AirNav   Everest Fuels
 
 404 users online  

MA88 Albert Farms Airport
Worthington, Massachusetts, USA

GOING TO WORTHINGTON?


FAA INFORMATION EFFECTIVE 16 JULY 2020

Location

FAA Identifier: MA88
Lat/Long: 42-23-24.3130N 072-55-51.3520W
42-23.405217N 072-55.855867W
42.3900869,-72.9309311
(estimated)
Elevation: 1425 ft. / 434 m (estimated)
Variation: 14W (1985)
From city: 1 mile SE of WORTHINGTON, MA
Time zone: UTC -4 (UTC -5 during Standard Time)
Zip code: 01098

Airport Operations

Airport use: Private use. Permission required prior to landing
Activation date: 10/1976
Control tower: no
ARTCC: BOSTON CENTER
FSS: BURLINGTON FLIGHT SERVICE STATION
Attendance: UNATNDD
Wind indicator: no
Segmented circle: no

Airport Communications

WX ASOS at PSF (16 nm W): 135.375 (413-499-3273)
WX ASOS at BAF (17 nm SE): 127.1 (413-568-2267)

Nearby radio navigation aids

VOR radial/distance  VOR name  Freq  Var
CTRr021/6.0CHESTER VOR/DME115.1013W
BAFr339/16.7BARNES VORTAC113.0014W
EENr243/37.2KEENE VORTAC109.4014W
GDMr270/39.7GARDNER VOR/DME110.6014W

 
NDB name  Hdg/Dist  Freq  Var  ID
GREAT BARRINGTON073/24.439514WGBR --. -... .-.
PHILMONT090/36.127213WPFH .--. ..-. ....

Airport Services

Runway Information

Runway N/S

Dimensions: 2800 x 50 ft. / 853 x 15 m
Surface: asphalt/gravel
CNTR PORTION OF RY 25'WIDE ASPH 12.5'GRVL ON EACH SIDE OF ASPH FOR TOTAL WIDTH OF 50'
RUNWAY N  RUNWAY S
Traffic pattern: leftleft
Obstructions: trees, 1200 ft. from runwaytrees, 700 ft. from runway

Airport Ownership and Management from official FAA records

Ownership: Privately-owned
Owner: BEN ALBERT
BOX 265 HUNTINGTON RD
WORTHINGTON, MA 01098
Phone 413-238-5521
Manager: BEN ALBERT
BOX 265 HUNTINGTON RD
WORTHINGTON, MA 01098
Phone 413-238-5521

Airport Operational Statistics

Aircraft based on the field: 3
Single engine airplanes: 3
    

Additional Remarks

OWNER DESIRES ARPT TO BE CHARTED.
FOR CD CTC YANKEE APCH AT 860-386-3597

Instrument Procedures

There are no published instrument procedures at MA88.

Some nearby airports with instrument procedures:

7B2 - Northampton Airport (15 nm E)
KPSF - Pittsfield Municipal Airport (16 nm W)
KBAF - Westfield-Barnes Regional Airport (17 nm SE)
KCEF - Westover Air Reserve Base/Metropolitan Airport (21 nm SE)
KAQW - Harriman-and-West Airport (21 nm NW)
 
Loc | Ops | Rwys | IFR | FBO | Links
Com | Nav | Svcs | Stats | Notes
Area around MA88 (Albert Farms Airport)
 
Road maps at: MapQuest Bing Google
 
Aerial photo
No photo
 
Sectional chart

 
Airport distance calculator
Flying to Albert Farms Airport? Find the distance to fly.

From to MA88

Sunrise and sunset
Times for 10-Aug-2020
 Local
(UTC-4)
 Zulu
(UTC)
Morning civil twilight05:2509:25
Sunrise05:5509:55
Sunset19:5823:58
Evening civil twilight20:2900:29

Current date and time
Zulu (UTC)  10-Aug-2020 08:33:19
Local (UTC-4)  10-Aug-2020 04:33:19
 
METAR
KPSF 
16nm W 
100754Z AUTO 00000KT 9SM CLR 17/16 A3005 RMK AO2 SLP148 T01670156
KBAF 
16nm SE 
100818Z AUTO 00000KT 1 1/2SM BR FEW006 19/19 A3002 RMK AO2 VIS 3/4V4 T01940194
KAQW 
21nm NW 
100752Z AUTO 00000KT 6SM BR FEW060 17/17 A3004 RMK AO2 SLP170 T01720167
KCEF 
22nm SE 
100756Z AUTO 00000KT 10SM CLR 21/20 A3002 RMK AO2 SLP170 T02060196
KBDL 
30nm S 
100751Z 19005KT 10SM CLR 22/19 A3002 RMK AO2 SLP163 T02170194
KORE 
31nm E 
100752Z AUTO 00000KT 6SM BR CLR 19/18 A3004 RMK AO2 SLP168 T01890183
TAF
KPSF 
16nm W 
100535Z 1006/1106 00000KT P6SM FEW050 BKN080 FM100800 VRB03KT P6SM FEW010 BKN050 FM101200 22004KT P6SM SCT050 FM101500 26008KT P6SM FEW050 SCT250 PROB30 1019/1023 3SM -TSRA BR BKN045CB FM110100 22003KT P6SM SCT045 SCT250
KBAF 
16nm SE 
100802Z 1008/1106 00000KT 1SM BR FEW006 FM101000 00000KT 5SM BR SKC FM101500 22003KT P6SM FEW060 FM101800 22007KT P6SM VCSH BKN060 FM110000 00000KT P6SM FEW120
NOTAMs
Click for the latest NOTAMs
NOTAMs are issued by the DoD/FAA and will open in a separate window not controlled by AirNav.

 

 
 

Would you like to see your business listed on this page?

 If your business provides an interesting product or service to pilots, flight crews, aircraft, or users of the Albert Farms Airport, you should consider listing it here.  To start the listing process, click on the button below
 
Add a business
 

Other Pages about Albert Farms Airport

Update a link
 
Copyright © AirNav, LLC. All rights reserved. Privacy Policy  Contact